Traveller — PHAM — position and weather

sailwx.info

Track history (hours):
 
Tides and Currents Weather Stations Pressure Air Temp Water Temp Dewpoint Dewpoint Depression Visibility Wind Speed Wind Dir Waves Ship Positions

Traveller

Last reported at 2016-Sep-13 02:00 UTC. Time now 2016-Sep-27 22:23 UTC.
Position N 31°24' E 029°12'.
Warning: this ship's position is 14 days out of date.

Length 101 m; beam 20 m.

Type: Ship. MMSI: 246111000.

Barometer 1012.6 mb

Date/timePositionNaut miles runAvg speedWind from/ knotsBaromVisibWave heightAir tempDewpointWater temp
2016-Sep-13 02:00N 31°24' E 029°12'8 7.9 1012.6
2016-Sep-13 01:00N 31°30' E 029°06'1010.2 1012.9
2016-Sep-13 00:00N 31°30' E 028°54'1211.9 1013.1
2016-Sep-12 23:00N 31°36' E 028°42'5 5.1 1013.6
2016-Sep-12 22:00N 31°36' E 028°36'1211.8 1014.1
2016-Sep-12 21:00N 31°42' E 028°24'5 5.1 1014.5
2016-Sep-12 20:00N 31°42' E 028°18'1211.8 1014.6
2016-Sep-12 19:00N 31°48' E 028°06'5 5.1 1014.9
2016-Sep-12 18:00N 31°48' E 028°00'1211.8 1014.7
2016-Sep-12 17:00N 31°54' E 027°48'5 5.1 1014.5
2016-Sep-12 16:00N 31°54' E 027°42'1211.8 1014.4
2016-Sep-12 15:00N 32°00' E 027°30'5 5.1 1014.4
2016-Sep-12 14:00N 32°00' E 027°24'1211.8 1014.5
2016-Sep-12 13:00N 32°06' E 027°12'5 5.1 1014.5
2016-Sep-12 12:00N 32°06' E 027°06'8 7.9 1014.7
2016-Sep-12 11:00N 32°12' E 027°00'1010.2 1015.2
2016-Sep-12 10:00N 32°12' E 026°48'8 7.9 1015.5
2016-Sep-12 09:00N 32°18' E 026°42'1010.1 1015.7
2016-Sep-12 08:00N 32°18' E 026°30'5 5.1 1015.7
2016-Sep-12 07:00N 32°18' E 026°24'0 0.0 1015.4
2016-Sep-12 06:00N 32°18' E 026°24'1211.8 1015.1
2016-Sep-12 05:00N 32°24' E 026°12'1616.3 1014.9
2016-Sep-12 04:00N 32°30' E 025°54'1211.8 1014.6
2016-Sep-12 03:00N 32°36' E 025°42'1616.3 1014.7
2016-Sep-12 02:00N 32°42' E 025°24'1616.3 1014.7
2016-Sep-12 01:00N 32°48' E 025°06'1616.3 1014.7
2016-Sep-12 00:00N 32°54' E 024°48'1211.7 1015.1
2016-Sep-11 23:00N 33°00' E 024°36'1616.2 1015.7
2016-Sep-11 22:00N 33°06' E 024°18'1616.2 1015.8
2016-Sep-11 21:00N 33°12' E 024°00'1211.7 1016.0
2016-Sep-11 20:00N 33°18' E 023°48'1515.0 1016.1
2016-Sep-11 19:00N 33°18' E 023°30'1616.2 1016.4
2016-Sep-11 18:00N 33°24' E 023°12'1616.2 1015.9
2016-Sep-11 17:00N 33°30' E 022°54'1616.2 1015.5
2016-Sep-11 16:00N 33°36' E 022°36'1211.7 1015.5
2016-Sep-11 15:00N 33°42' E 022°24'1616.1 1015.4
2016-Sep-11 14:00N 33°48' E 022°06'1616.1 1015.4
2016-Sep-11 13:00N 33°54' E 021°48'1616.1 1015.4
2016-Sep-11 12:00N 34°00' E 021°30'1211.6 1015.6
2016-Sep-11 11:00N 34°06' E 021°18'1616.1 1015.8
2016-Sep-11 10:00N 34°12' E 021°00'1616.0 1015.8
2016-Sep-11 09:00N 34°18' E 020°42'1616.0 1015.8
2016-Sep-11 08:00N 34°24' E 020°24'10 9.9 1015.7
2016-Sep-11 07:00N 34°24' E 020°12'1616.0 1015.2
2016-Sep-11 06:00N 34°30' E 019°54'1616.0 1014.7
2016-Sep-11 05:00N 34°36' E 019°36'1616.0 1014.3
2016-Sep-11 04:00N 34°42' E 019°18'1211.5 1014.0
2016-Sep-11 03:00N 34°48' E 019°06'1615.9 1014.0
2016-Sep-11 02:00N 34°54' E 018°48'1211.5 1013.8
2016-Sep-11 01:00N 35°00' E 018°36'1615.9 1014.0
2016-Sep-11 00:00N 35°06' E 018°18'1615.9 1014.4
2016-Sep-10 23:00N 35°12' E 018°00'1514.7 1014.8
2016-Sep-10 22:00N 35°12' E 017°42'1111.5 1015.2
2016-Sep-10 21:00N 35°18' E 017°30'1615.9 1015.3
2016-Sep-10 20:00N 35°24' E 017°12'1615.8 1014.7
2016-Sep-10 19:00N 35°30' E 016°54'1615.8 1015.0
2016-Sep-10 18:00N 35°36' E 016°36'1615.8 1014.4
2016-Sep-10 17:00N 35°42' E 016°18'1111.4 1014.0
2016-Sep-10 16:00N 35°48' E 016°06'1615.8 1013.6
2016-Sep-10 15:00N 35°54' E 015°48'1615.8 1013.4
2016-Sep-10 14:00N 36°00' E 015°30'1615.7 1013.4
2016-Sep-10 13:00N 36°06' E 015°12'1615.7 1013.6
2016-Sep-10 12:00N 36°12' E 014°54'1111.4 1013.9
2016-Sep-10 11:00N 36°18' E 014°42'818.3 1014.0
2016-Sep-10 10:34N 36°18' E 014°32'711.6
2016-Sep-10 10:00N 36°18' E 014°24'919.5 1014.3
2016-Sep-10 09:33N 36°23' E 014°15'713.2
2016-Sep-10 09:00N 36°24' E 014°06'716.4 1014.3
2016-Sep-10 08:32N 36°27' E 013°58'1912.6
2016-Sep-10 07:00N 36°36' E 013°36'1217.5 1013.5
2016-Sep-10 06:17N 36°40' E 013°21'312.1
2016-Sep-10 06:00N 36°42' E 013°18'3115.6 1013.4
2016-Sep-10 04:00N 36°54' E 012°42'1111.3 1013.1
2016-Sep-10 03:00N 37°00' E 012°30'1615.6 1013.2
2016-Sep-10 02:00N 37°06' E 012°12'1414.4 1013.4
2016-Sep-10 01:00N 37°06' E 011°54'1615.6 1013.8
2016-Sep-10 00:00N 37°12' E 011°36'1615.5 1014.1
2016-Sep-09 23:00N 37°18' E 011°18'1111.3 1014.5
2016-Sep-09 22:00N 37°24' E 011°06'1515.5 1014.8
2016-Sep-09 21:00N 37°30' E 010°48'1414.3 1015.1
2016-Sep-09 20:00N 37°30' E 010°30'1515.5 1015.1
2016-Sep-09 19:00N 37°36' E 010°12'1919.0 1014.9
2016-Sep-09 18:00N 37°36' E 009°48'1414.3 1014.6
2016-Sep-09 17:00N 37°36' E 009°30'1414.3 1014.8
2016-Sep-09 16:00N 37°36' E 009°12'1414.3 1014.9
2016-Sep-09 15:00N 37°36' E 008°54'1414.3 1015.0
2016-Sep-09 14:00N 37°36' E 008°36'1515.5 1015.2
2016-Sep-09 13:00N 37°30' E 008°18'1414.3 1015.4
2016-Sep-09 12:00N 37°30' E 008°00'1414.3 1016.0
2016-Sep-09 11:00N 37°30' E 007°42'1414.3 1016.4
2016-Sep-09 10:00N 37°30' E 007°24'1515.5 1016.7
2016-Sep-09 09:00N 37°24' E 007°06'1414.3 1017.0
2016-Sep-09 08:00N 37°24' E 006°48'1414.3 1017.0
2016-Sep-09 07:00N 37°24' E 006°30'1615.5 1016.7
2016-Sep-09 06:00N 37°18' E 006°12'1414.3 1016.5
2016-Sep-09 05:00N 37°18' E 005°54'1414.3 1016.0
2016-Sep-09 04:00N 37°18' E 005°36'1414.3 1015.7
2016-Sep-09 03:00N 37°18' E 005°18'1111.3 1015.7
2016-Sep-09 02:00N 37°12' E 005°06'1414.3 1015.8
2016-Sep-09 01:00N 37°12' E 004°48'1414.3 1016.0
2016-Sep-09 00:00N 37°12' E 004°30'1615.6 1016.1
2016-Sep-08 23:00N 37°06' E 004°12'1414.4 1016.0
2016-Sep-08 22:00N 37°06' E 003°54'1414.4 1016.0
2016-Sep-08 21:00N 37°06' E 003°36'1615.6 1015.7
2016-Sep-08 20:00N 37°00' E 003°18'10 9.6 1015.6
2016-Sep-08 19:00N 37°00' E 003°06'1414.4 1015.2
2016-Sep-08 18:00N 37°00' E 002°48'816.5 1014.7
2016-Sep-08 17:31N 36°56' E 002°40'815.3
2016-Sep-08 17:00N 36°54' E 002°30'510.7 1014.6
2016-Sep-08 16:33N 36°54' E 002°24'5 8.8
2016-Sep-08 16:00N 36°54' E 002°18'1116.7 1014.5
2016-Sep-08 15:21N 36°52' E 002°05'512.7
2016-Sep-08 15:00N 36°54' E 002°00'817.3 1014.6
2016-Sep-08 14:30N 36°50' E 001°51'714.5
2016-Sep-08 14:00N 36°48' E 001°42'1414.4 1015.1
2016-Sep-08 13:00N 36°48' E 001°24'1615.6 1015.3
2016-Sep-08 12:00N 36°42' E 001°06'1414.4 1015.8
2016-Sep-08 11:00N 36°42' E 000°48'1214.0 1015.6
2016-Sep-08 10:08N 36°41' E 000°33'320.0
2016-Sep-08 10:00N 36°42' E 000°30'614.3 1015.8
2016-Sep-08 09:32N 36°40' E 000°22'916.7
2016-Sep-08 09:00N 36°36' E 000°12'10 9.6 1015.7
2016-Sep-08 08:00N 36°36' E 000°00'1414.5 1015.1
2016-Sep-08 07:00N 36°36' W 000°18'813.5 1014.6
2016-Sep-08 06:22N 36°35' W 000°28'616.8
2016-Sep-08 06:00N 36°36' W 000°36'1615.7 1014.0
2016-Sep-08 05:00N 36°30' W 000°54'1414.5 1014.0
2016-Sep-08 04:00N 36°30' W 001°12'811.3 1013.7
2016-Sep-08 03:15N 36°27' W 001°22'414.0
2016-Sep-08 03:00N 36°24' W 001°24'1414.5 1013.9
2016-Sep-08 02:00N 36°24' W 001°42'917.0 1014.3
2016-Sep-08 01:28N 36°23' W 001°53'612.0
2016-Sep-08 01:00N 36°24' W 002°00'916.8 1014.8
2016-Sep-08 00:29N 36°22' W 002°10'613.3
2016-Sep-08 00:00N 36°24' W 002°18'917.6 1014.7
2016-Sep-07 23:30N 36°20' W 002°28'713.9
2016-Sep-07 23:00N 36°18' W 002°36'715.5 1014.8
2016-Sep-07 22:33N 36°18' W 002°44'813.8
2016-Sep-07 22:00N 36°18' W 002°54'1115.4 1015.0
2016-Sep-07 21:17N 36°15' W 003°07'517.2
2016-Sep-07 21:00N 36°12' W 003°12'715.0 1015.1
2016-Sep-07 20:33N 36°13' W 003°20'814.5
2016-Sep-07 20:00N 36°12' W 003°30'1514.5 1014.6
2016-Sep-07 19:00N 36°12' W 003°48'2020.3 1014.0
2016-Sep-07 18:00N 36°06' W 004°12'1514.5 1013.8
2016-Sep-07 17:00N 36°06' W 004°30'1514.5 1013.8
2016-Sep-07 16:00N 36°06' W 004°48'2020.3 1013.8
2016-Sep-07 15:00N 36°00' W 005°12'614.0 1014.0
2016-Sep-07 14:34N 35°59' W 005°19'1017.6
2016-Sep-07 14:00N 35°54' W 005°30'1514.6 1015.8
2016-Sep-07 13:00N 35°54' W 005°48'1514.6 1016.4
2016-Sep-07 12:00N 35°54' W 006°06'1615.8 1016.6
2016-Sep-07 11:00N 36°00' W 006°24'716.3 1016.2
2016-Sep-07 10:34N 35°59' W 006°33'813.5
2016-Sep-07 10:00N 36°00' W 006°42'716.9 1016.3
2016-Sep-07 09:33N 36°02' W 006°51'815.0
2016-Sep-07 09:00N 36°06' W 007°00'1615.7 1016.0
2016-Sep-07 08:00N 36°12' W 007°18'715.8 1015.4
2016-Sep-07 07:33N 36°10' W 007°26'814.2
2016-Sep-07 07:00N 36°12' W 007°36'715.5 1015.3
2016-Sep-07 06:33N 36°14' W 007°44'915.9
2016-Sep-07 06:00N 36°18' W 007°54'1514.5 1015.0
2016-Sep-07 05:00N 36°18' W 008°12'1215.1 1014.9
2016-Sep-07 04:13N 36°23' W 008°25'417.6
2016-Sep-07 04:00N 36°24' W 008°30'613.7 1015.1
2016-Sep-07 03:34N 36°25' W 008°37'1017.4
2016-Sep-07 03:00N 36°30' W 008°48'614.0 1015.2
2016-Sep-07 02:33N 36°29' W 008°56'815.0
2016-Sep-07 02:00N 36°30' W 009°06'716.1 1015.8
2016-Sep-07 01:34N 36°33' W 009°14'915.4
2016-Sep-07 01:00N 36°36' W 009°24'716.1 1016.1
2016-Sep-07 00:34N 36°42' W 009°27'915.6
2016-Sep-07 00:00N 36°48' W 009°36'716.5 1016.0
2016-Sep-06 23:34N 36°55' W 009°35'1119.2
2016-Sep-06 23:00N 37°06' W 009°36'410.1 1016.3
2016-Sep-06 22:34N 37°10' W 009°39'915.3
2016-Sep-06 22:00N 37°18' W 009°42'614.6 1016.4
2016-Sep-06 21:34N 37°24' W 009°43'712.0
2016-Sep-06 21:00N 37°30' W 009°48'920.9 1016.3
2016-Sep-06 20:34N 37°39' W 009°47'915.8
2016-Sep-06 20:00N 37°48' W 009°48'715.3 1015.9
2016-Sep-06 19:33N 37°54' W 009°52'611.3
2016-Sep-06 19:00N 38°00' W 009°54'920.0 1015.9
2016-Sep-06 18:34N 38°08' W 009°56'1017.6
2016-Sep-06 18:00N 38°18' W 010°00'511.6 1015.7
2016-Sep-06 17:33N 38°23' W 010°01'712.4
2016-Sep-06 17:00N 38°30' W 010°00'819.1 1015.7
2016-Sep-06 16:34N 38°37' W 010°05'1118.9
2016-Sep-06 16:00N 38°48' W 010°06'410.1 1016.0
2016-Sep-06 15:33N 38°52' W 010°06'813.5
2016-Sep-06 15:00N 39°00' W 010°06'716.0 1016.4
2016-Sep-06 14:33N 39°07' W 010°06'1119.5
2016-Sep-06 14:00N 39°18' W 010°06'4 8.5 1016.6
2016-Sep-06 13:34N 39°22' W 010°06'814.7
2016-Sep-06 13:00N 39°30' W 010°06'715.1 1017.1
2016-Sep-06 12:34N 39°37' W 010°06'1120.2
2016-Sep-06 12:00N 39°48' W 010°06'3 7.5 1017.5
2016-Sep-06 11:33N 39°51' W 010°06'1514.7
2016-Sep-06 10:33N 40°06' W 010°06'1221.3
2016-Sep-06 10:00N 40°18' W 010°06'3 7.4 1017.2
2016-Sep-06 09:33N 40°21' W 010°06'915.6
2016-Sep-06 09:00N 40°30' W 010°06'613.8 1017.8
2016-Sep-06 08:33N 40°36' W 010°06'610.6
2016-Sep-06 08:00N 40°42' W 010°06'1818.0 1017.8
2016-Sep-06 07:00N 41°00' W 010°06'813.6 1018.4
2016-Sep-06 06:24N 41°08' W 010°06'4 9.7
2016-Sep-06 06:00N 41°12' W 010°06'1818.0 1019.3
2016-Sep-06 05:00N 41°30' W 010°06'1212.0 1018.9
2016-Sep-06 04:00N 41°42' W 010°06'1818.0 1019.4
2016-Sep-06 03:00N 42°00' W 010°06'1212.0 1019.8
2016-Sep-06 02:00N 42°12' W 010°06'1818.0 1020.7
2016-Sep-06 01:00N 42°30' W 010°06'1212.0 1021.5
2016-Sep-06 00:00N 42°42' W 010°06'1212.0 1022.2
2016-Sep-05 23:00N 42°54' W 010°06'1818.0 1022.7
2016-Sep-05 22:00N 43°12' W 010°06'1312.8 1023.2
2016-Sep-05 21:00N 43°24' W 010°00'1514.8 1023.6
2016-Sep-05 20:00N 43°36' W 009°48'1312.8 1023.2
2016-Sep-05 19:00N 43°48' W 009°42'1514.8 1023.1
2016-Sep-05 18:00N 44°00' W 009°30'1918.5 1023.4
2016-Sep-05 17:00N 44°18' W 009°24'1514.7 1023.4
2016-Sep-05 16:00N 44°30' W 009°12'1312.7 1023.6
2016-Sep-05 15:00N 44°42' W 009°06'1514.7 1023.8
2016-Sep-05 14:00N 44°54' W 008°54'1312.7 1024.9
2016-Sep-05 13:00N 45°06' W 008°48'1514.7 1025.0
2016-Sep-05 12:00N 45°18' W 008°36'1312.7 1024.9
2016-Sep-05 11:00N 45°30' W 008°30'1514.6 1024.4
2016-Sep-05 10:00N 45°42' W 008°18'20913.3 1024.0
2016-Sep-04 18:17N 48°46' W 005°53'4511.6
2016-Sep-04 14:23N 49°13' W 004°58'1613.8
2016-Sep-04 13:14N 49°22' W 004°37'4813.1
2016-Sep-04 09:33N 49°45' W 003°32'1110.8
2016-Sep-04 08:33N 49°51' W 003°18'1010.4
2016-Sep-04 07:33N 49°56' W 003°04'1010.5
2016-Sep-04 06:33N 49°60' W 002°49'3113.2
2016-Sep-04 04:12N 50°08' W 002°02'6713.1
2016-Sep-03 23:04N 50°28' W 000°21'510.2
2016-Sep-03 22:33N 50°29' W 000°13'1010.2
2016-Sep-03 21:33N 50°31' E 000°02'1110.6
2016-Sep-03 20:33N 50°34' E 000°18'4214.1
2016-Sep-03 17:32N 50°57' E 001°15'1313.7
2016-Sep-03 16:33N 51°07' E 001°30'1111.0
2016-Sep-03 15:33N 51°15' E 001°41'1110.7
2016-Sep-03 14:33N 51°26' E 001°44'1211.7
2016-Sep-03 13:33N 51°37' E 001°45'1413.5
2016-Sep-03 12:34N 51°51' E 001°43'1514.5
2016-Sep-03 11:34N 52°05' E 001°48'4514.7
2016-Sep-03 08:30N 52°50' E 001°47'1616.8
2016-Sep-03 07:34N 53°01' E 001°29'2316.1
2016-Sep-03 06:06N 53°21' E 001°09'5816.2
2016-Sep-03 02:30N 54°10' E 000°16'  
Track history (hours):
 
Tides and Currents Weather Stations Pressure Air Temp Water Temp Dewpoint Dewpoint Depression Visibility Wind Speed Wind Dir Waves Ship Positions

Traveller

Last reported at 2016-Sep-13 02:00 UTC. Time now 2016-Sep-27 22:23 UTC.
Position N 31°24' E 029°12'.
Warning: this ship's position is 14 days out of date.

Length 101 m; beam 20 m.

Type: Ship. MMSI: 246111000.

Barometer 1012.6 mb

Date/timePositionNaut miles runAvg speedWind from/ knotsBaromVisibWave heightAir tempDewpointWater temp
2016-Sep-13 02:00N 31°24' E 029°12'8 7.9 1012.6
2016-Sep-13 01:00N 31°30' E 029°06'1010.2 1012.9
2016-Sep-13 00:00N 31°30' E 028°54'1211.9 1013.1
2016-Sep-12 23:00N 31°36' E 028°42'5 5.1 1013.6
2016-Sep-12 22:00N 31°36' E 028°36'1211.8 1014.1
2016-Sep-12 21:00N 31°42' E 028°24'5 5.1 1014.5
2016-Sep-12 20:00N 31°42' E 028°18'1211.8 1014.6
2016-Sep-12 19:00N 31°48' E 028°06'5 5.1 1014.9
2016-Sep-12 18:00N 31°48' E 028°00'1211.8 1014.7
2016-Sep-12 17:00N 31°54' E 027°48'5 5.1 1014.5
2016-Sep-12 16:00N 31°54' E 027°42'1211.8 1014.4
2016-Sep-12 15:00N 32°00' E 027°30'5 5.1 1014.4
2016-Sep-12 14:00N 32°00' E 027°24'1211.8 1014.5
2016-Sep-12 13:00N 32°06' E 027°12'5 5.1 1014.5
2016-Sep-12 12:00N 32°06' E 027°06'8 7.9 1014.7
2016-Sep-12 11:00N 32°12' E 027°00'1010.2 1015.2
2016-Sep-12 10:00N 32°12' E 026°48'8 7.9 1015.5
2016-Sep-12 09:00N 32°18' E 026°42'1010.1 1015.7
2016-Sep-12 08:00N 32°18' E 026°30'5 5.1 1015.7
2016-Sep-12 07:00N 32°18' E 026°24'0 0.0 1015.4
2016-Sep-12 06:00N 32°18' E 026°24'1211.8 1015.1
2016-Sep-12 05:00N 32°24' E 026°12'1616.3 1014.9
2016-Sep-12 04:00N 32°30' E 025°54'1211.8 1014.6
2016-Sep-12 03:00N 32°36' E 025°42'1616.3 1014.7
2016-Sep-12 02:00N 32°42' E 025°24'1616.3 1014.7
2016-Sep-12 01:00N 32°48' E 025°06'1616.3 1014.7
2016-Sep-12 00:00N 32°54' E 024°48'1211.7 1015.1
2016-Sep-11 23:00N 33°00' E 024°36'1616.2 1015.7
2016-Sep-11 22:00N 33°06' E 024°18'1616.2 1015.8
2016-Sep-11 21:00N 33°12' E 024°00'1211.7 1016.0
2016-Sep-11 20:00N 33°18' E 023°48'1515.0 1016.1
2016-Sep-11 19:00N 33°18' E 023°30'1616.2 1016.4
2016-Sep-11 18:00N 33°24' E 023°12'1616.2 1015.9
2016-Sep-11 17:00N 33°30' E 022°54'1616.2 1015.5
2016-Sep-11 16:00N 33°36' E 022°36'1211.7 1015.5
2016-Sep-11 15:00N 33°42' E 022°24'1616.1 1015.4
2016-Sep-11 14:00N 33°48' E 022°06'1616.1 1015.4
2016-Sep-11 13:00N 33°54' E 021°48'1616.1 1015.4
2016-Sep-11 12:00N 34°00' E 021°30'1211.6 1015.6
2016-Sep-11 11:00N 34°06' E 021°18'1616.1 1015.8
2016-Sep-11 10:00N 34°12' E 021°00'1616.0 1015.8
2016-Sep-11 09:00N 34°18' E 020°42'1616.0 1015.8
2016-Sep-11 08:00N 34°24' E 020°24'10 9.9 1015.7
2016-Sep-11 07:00N 34°24' E 020°12'1616.0 1015.2
2016-Sep-11 06:00N 34°30' E 019°54'1616.0 1014.7
2016-Sep-11 05:00N 34°36' E 019°36'1616.0 1014.3
2016-Sep-11 04:00N 34°42' E 019°18'1211.5 1014.0
2016-Sep-11 03:00N 34°48' E 019°06'1615.9 1014.0
2016-Sep-11 02:00N 34°54' E 018°48'1211.5 1013.8
2016-Sep-11 01:00N 35°00' E 018°36'1615.9 1014.0
2016-Sep-11 00:00N 35°06' E 018°18'1615.9 1014.4
2016-Sep-10 23:00N 35°12' E 018°00'1514.7 1014.8
2016-Sep-10 22:00N 35°12' E 017°42'1111.5 1015.2
2016-Sep-10 21:00N 35°18' E 017°30'1615.9 1015.3
2016-Sep-10 20:00N 35°24' E 017°12'1615.8 1014.7
2016-Sep-10 19:00N 35°30' E 016°54'1615.8 1015.0
2016-Sep-10 18:00N 35°36' E 016°36'1615.8 1014.4
2016-Sep-10 17:00N 35°42' E 016°18'1111.4 1014.0
2016-Sep-10 16:00N 35°48' E 016°06'1615.8 1013.6
2016-Sep-10 15:00N 35°54' E 015°48'1615.8 1013.4
2016-Sep-10 14:00N 36°00' E 015°30'1615.7 1013.4
2016-Sep-10 13:00N 36°06' E 015°12'1615.7 1013.6
2016-Sep-10 12:00N 36°12' E 014°54'1111.4 1013.9
2016-Sep-10 11:00N 36°18' E 014°42'818.3 1014.0
2016-Sep-10 10:34N 36°18' E 014°32'711.6
2016-Sep-10 10:00N 36°18' E 014°24'919.5 1014.3
2016-Sep-10 09:33N 36°23' E 014°15'713.2
2016-Sep-10 09:00N 36°24' E 014°06'716.4 1014.3
2016-Sep-10 08:32N 36°27' E 013°58'1912.6
2016-Sep-10 07:00N 36°36' E 013°36'1217.5 1013.5
2016-Sep-10 06:17N 36°40' E 013°21'312.1
2016-Sep-10 06:00N 36°42' E 013°18'3115.6 1013.4
2016-Sep-10 04:00N 36°54' E 012°42'1111.3 1013.1
2016-Sep-10 03:00N 37°00' E 012°30'1615.6 1013.2
2016-Sep-10 02:00N 37°06' E 012°12'1414.4 1013.4
2016-Sep-10 01:00N 37°06' E 011°54'1615.6 1013.8
2016-Sep-10 00:00N 37°12' E 011°36'1615.5 1014.1
2016-Sep-09 23:00N 37°18' E 011°18'1111.3 1014.5
2016-Sep-09 22:00N 37°24' E 011°06'1515.5 1014.8
2016-Sep-09 21:00N 37°30' E 010°48'1414.3 1015.1
2016-Sep-09 20:00N 37°30' E 010°30'1515.5 1015.1
2016-Sep-09 19:00N 37°36' E 010°12'1919.0 1014.9
2016-Sep-09 18:00N 37°36' E 009°48'1414.3 1014.6
2016-Sep-09 17:00N 37°36' E 009°30'1414.3 1014.8
2016-Sep-09 16:00N 37°36' E 009°12'1414.3 1014.9
2016-Sep-09 15:00N 37°36' E 008°54'1414.3 1015.0
2016-Sep-09 14:00N 37°36' E 008°36'1515.5 1015.2
2016-Sep-09 13:00N 37°30' E 008°18'1414.3 1015.4
2016-Sep-09 12:00N 37°30' E 008°00'1414.3 1016.0
2016-Sep-09 11:00N 37°30' E 007°42'1414.3 1016.4
2016-Sep-09 10:00N 37°30' E 007°24'1515.5 1016.7
2016-Sep-09 09:00N 37°24' E 007°06'1414.3 1017.0
2016-Sep-09 08:00N 37°24' E 006°48'1414.3 1017.0
2016-Sep-09 07:00N 37°24' E 006°30'1615.5 1016.7
2016-Sep-09 06:00N 37°18' E 006°12'1414.3 1016.5
2016-Sep-09 05:00N 37°18' E 005°54'1414.3 1016.0
2016-Sep-09 04:00N 37°18' E 005°36'1414.3 1015.7
2016-Sep-09 03:00N 37°18' E 005°18'1111.3 1015.7
2016-Sep-09 02:00N 37°12' E 005°06'1414.3 1015.8
2016-Sep-09 01:00N 37°12' E 004°48'1414.3 1016.0
2016-Sep-09 00:00N 37°12' E 004°30'1615.6 1016.1
2016-Sep-08 23:00N 37°06' E 004°12'1414.4 1016.0
2016-Sep-08 22:00N 37°06' E 003°54'1414.4 1016.0
2016-Sep-08 21:00N 37°06' E 003°36'1615.6 1015.7
2016-Sep-08 20:00N 37°00' E 003°18'10 9.6 1015.6
2016-Sep-08 19:00N 37°00' E 003°06'1414.4 1015.2
2016-Sep-08 18:00N 37°00' E 002°48'816.5 1014.7
2016-Sep-08 17:31N 36°56' E 002°40'815.3
2016-Sep-08 17:00N 36°54' E 002°30'510.7 1014.6
2016-Sep-08 16:33N 36°54' E 002°24'5 8.8
2016-Sep-08 16:00N 36°54' E 002°18'1116.7 1014.5
2016-Sep-08 15:21N 36°52' E 002°05'512.7
2016-Sep-08 15:00N 36°54' E 002°00'817.3 1014.6
2016-Sep-08 14:30N 36°50' E 001°51'714.5
2016-Sep-08 14:00N 36°48' E 001°42'1414.4 1015.1
2016-Sep-08 13:00N 36°48' E 001°24'1615.6 1015.3
2016-Sep-08 12:00N 36°42' E 001°06'1414.4 1015.8
2016-Sep-08 11:00N 36°42' E 000°48'1214.0 1015.6
2016-Sep-08 10:08N 36°41' E 000°33'320.0
2016-Sep-08 10:00N 36°42' E 000°30'614.3 1015.8
2016-Sep-08 09:32N 36°40' E 000°22'916.7
2016-Sep-08 09:00N 36°36' E 000°12'10 9.6 1015.7
2016-Sep-08 08:00N 36°36' E 000°00'1414.5 1015.1
2016-Sep-08 07:00N 36°36' W 000°18'813.5 1014.6
2016-Sep-08 06:22N 36°35' W 000°28'616.8
2016-Sep-08 06:00N 36°36' W 000°36'1615.7 1014.0
2016-Sep-08 05:00N 36°30' W 000°54'1414.5 1014.0
2016-Sep-08 04:00N 36°30' W 001°12'811.3 1013.7
2016-Sep-08 03:15N 36°27' W 001°22'414.0
2016-Sep-08 03:00N 36°24' W 001°24'1414.5 1013.9
2016-Sep-08 02:00N 36°24' W 001°42'917.0 1014.3
2016-Sep-08 01:28N 36°23' W 001°53'612.0
2016-Sep-08 01:00N 36°24' W 002°00'916.8 1014.8
2016-Sep-08 00:29N 36°22' W 002°10'613.3
2016-Sep-08 00:00N 36°24' W 002°18'917.6 1014.7
2016-Sep-07 23:30N 36°20' W 002°28'713.9
2016-Sep-07 23:00N 36°18' W 002°36'715.5 1014.8
2016-Sep-07 22:33N 36°18' W 002°44'813.8
2016-Sep-07 22:00N 36°18' W 002°54'1115.4 1015.0
2016-Sep-07 21:17N 36°15' W 003°07'517.2
2016-Sep-07 21:00N 36°12' W 003°12'715.0 1015.1
2016-Sep-07 20:33N 36°13' W 003°20'814.5
2016-Sep-07 20:00N 36°12' W 003°30'1514.5 1014.6
2016-Sep-07 19:00N 36°12' W 003°48'2020.3 1014.0
2016-Sep-07 18:00N 36°06' W 004°12'1514.5 1013.8
2016-Sep-07 17:00N 36°06' W 004°30'1514.5 1013.8
2016-Sep-07 16:00N 36°06' W 004°48'2020.3 1013.8
2016-Sep-07 15:00N 36°00' W 005°12'614.0 1014.0
2016-Sep-07 14:34N 35°59' W 005°19'1017.6
2016-Sep-07 14:00N 35°54' W 005°30'1514.6 1015.8
2016-Sep-07 13:00N 35°54' W 005°48'1514.6 1016.4
2016-Sep-07 12:00N 35°54' W 006°06'1615.8 1016.6
2016-Sep-07 11:00N 36°00' W 006°24'716.3 1016.2
2016-Sep-07 10:34N 35°59' W 006°33'813.5
2016-Sep-07 10:00N 36°00' W 006°42'716.9 1016.3
2016-Sep-07 09:33N 36°02' W 006°51'815.0
2016-Sep-07 09:00N 36°06' W 007°00'1615.7 1016.0
2016-Sep-07 08:00N 36°12' W 007°18'715.8 1015.4
2016-Sep-07 07:33N 36°10' W 007°26'814.2
2016-Sep-07 07:00N 36°12' W 007°36'715.5 1015.3
2016-Sep-07 06:33N 36°14' W 007°44'915.9
2016-Sep-07 06:00N 36°18' W 007°54'1514.5 1015.0
2016-Sep-07 05:00N 36°18' W 008°12'1215.1 1014.9
2016-Sep-07 04:13N 36°23' W 008°25'417.6
2016-Sep-07 04:00N 36°24' W 008°30'613.7 1015.1
2016-Sep-07 03:34N 36°25' W 008°37'1017.4
2016-Sep-07 03:00N 36°30' W 008°48'614.0 1015.2
2016-Sep-07 02:33N 36°29' W 008°56'815.0
2016-Sep-07 02:00N 36°30' W 009°06'716.1 1015.8
2016-Sep-07 01:34N 36°33' W 009°14'915.4
2016-Sep-07 01:00N 36°36' W 009°24'716.1 1016.1
2016-Sep-07 00:34N 36°42' W 009°27'915.6
2016-Sep-07 00:00N 36°48' W 009°36'716.5 1016.0
2016-Sep-06 23:34N 36°55' W 009°35'1119.2
2016-Sep-06 23:00N 37°06' W 009°36'410.1 1016.3
2016-Sep-06 22:34N 37°10' W 009°39'915.3
2016-Sep-06 22:00N 37°18' W 009°42'614.6 1016.4
2016-Sep-06 21:34N 37°24' W 009°43'712.0
2016-Sep-06 21:00N 37°30' W 009°48'920.9 1016.3
2016-Sep-06 20:34N 37°39' W 009°47'915.8
2016-Sep-06 20:00N 37°48' W 009°48'715.3 1015.9
2016-Sep-06 19:33N 37°54' W 009°52'611.3
2016-Sep-06 19:00N 38°00' W 009°54'920.0 1015.9
2016-Sep-06 18:34N 38°08' W 009°56'1017.6
2016-Sep-06 18:00N 38°18' W 010°00'511.6 1015.7
2016-Sep-06 17:33N 38°23' W 010°01'712.4
2016-Sep-06 17:00N 38°30' W 010°00'819.1 1015.7
2016-Sep-06 16:34N 38°37' W 010°05'1118.9
2016-Sep-06 16:00N 38°48' W 010°06'410.1 1016.0
2016-Sep-06 15:33N 38°52' W 010°06'813.5
2016-Sep-06 15:00N 39°00' W 010°06'716.0 1016.4
2016-Sep-06 14:33N 39°07' W 010°06'1119.5
2016-Sep-06 14:00N 39°18' W 010°06'4 8.5 1016.6
2016-Sep-06 13:34N 39°22' W 010°06'814.7
2016-Sep-06 13:00N 39°30' W 010°06'715.1 1017.1
2016-Sep-06 12:34N 39°37' W 010°06'1120.2
2016-Sep-06 12:00N 39°48' W 010°06'3 7.5 1017.5
2016-Sep-06 11:33N 39°51' W 010°06'1514.7
2016-Sep-06 10:33N 40°06' W 010°06'1221.3
2016-Sep-06 10:00N 40°18' W 010°06'3 7.4 1017.2
2016-Sep-06 09:33N 40°21' W 010°06'915.6
2016-Sep-06 09:00N 40°30' W 010°06'613.8 1017.8
2016-Sep-06 08:33N 40°36' W 010°06'610.6
2016-Sep-06 08:00N 40°42' W 010°06'1818.0 1017.8
2016-Sep-06 07:00N 41°00' W 010°06'813.6 1018.4
2016-Sep-06 06:24N 41°08' W 010°06'4 9.7
2016-Sep-06 06:00N 41°12' W 010°06'1818.0 1019.3
2016-Sep-06 05:00N 41°30' W 010°06'1212.0 1018.9
2016-Sep-06 04:00N 41°42' W 010°06'1818.0 1019.4
2016-Sep-06 03:00N 42°00' W 010°06'1212.0 1019.8
2016-Sep-06 02:00N 42°12' W 010°06'1818.0 1020.7
2016-Sep-06 01:00N 42°30' W 010°06'1212.0 1021.5
2016-Sep-06 00:00N 42°42' W 010°06'1212.0 1022.2
2016-Sep-05 23:00N 42°54' W 010°06'1818.0 1022.7
2016-Sep-05 22:00N 43°12' W 010°06'1312.8 1023.2
2016-Sep-05 21:00N 43°24' W 010°00'1514.8 1023.6
2016-Sep-05 20:00N 43°36' W 009°48'1312.8 1023.2
2016-Sep-05 19:00N 43°48' W 009°42'1514.8 1023.1
2016-Sep-05 18:00N 44°00' W 009°30'1918.5 1023.4
2016-Sep-05 17:00N 44°18' W 009°24'1514.7 1023.4
2016-Sep-05 16:00N 44°30' W 009°12'1312.7 1023.6
2016-Sep-05 15:00N 44°42' W 009°06'1514.7 1023.8
2016-Sep-05 14:00N 44°54' W 008°54'1312.7 1024.9
2016-Sep-05 13:00N 45°06' W 008°48'1514.7 1025.0
2016-Sep-05 12:00N 45°18' W 008°36'1312.7 1024.9
2016-Sep-05 11:00N 45°30' W 008°30'1514.6 1024.4
2016-Sep-05 10:00N 45°42' W 008°18'20913.3 1024.0
2016-Sep-04 18:17N 48°46' W 005°53'4511.6
2016-Sep-04 14:23N 49°13' W 004°58'1613.8
2016-Sep-04 13:14N 49°22' W 004°37'4813.1
2016-Sep-04 09:33N 49°45' W 003°32'1110.8
2016-Sep-04 08:33N 49°51' W 003°18'1010.4
2016-Sep-04 07:33N 49°56' W 003°04'1010.5
2016-Sep-04 06:33N 49°60' W 002°49'3113.2
2016-Sep-04 04:12N 50°08' W 002°02'6713.1
2016-Sep-03 23:04N 50°28' W 000°21'510.2
2016-Sep-03 22:33N 50°29' W 000°13'1010.2
2016-Sep-03 21:33N 50°31' E 000°02'1110.6
2016-Sep-03 20:33N 50°34' E 000°18'4214.1
2016-Sep-03 17:32N 50°57' E 001°15'1313.7
2016-Sep-03 16:33N 51°07' E 001°30'1111.0
2016-Sep-03 15:33N 51°15' E 001°41'1110.7
2016-Sep-03 14:33N 51°26' E 001°44'1211.7
2016-Sep-03 13:33N 51°37' E 001°45'1413.5
2016-Sep-03 12:34N 51°51' E 001°43'1514.5
2016-Sep-03 11:34N 52°05' E 001°48'4514.7
2016-Sep-03 08:30N 52°50' E 001°47'1616.8
2016-Sep-03 07:34N 53°01' E 001°29'2316.1
2016-Sep-03 06:06N 53°21' E 001°09'5816.2
2016-Sep-03 02:30N 54°10' E 000°16'  

Dump ship's entire track history